createdAt,value
2023-01-01T00:01:19.997Z,9.97
2023-01-01T00:03:49.724Z,9.95
2023-01-01T00:06:16.283Z,10.02
2023-01-01T00:08:42.676Z,10.01
2023-01-01T00:11:10.533Z,10.14
2023-01-01T00:13:39.305Z,10.20
2023-01-01T00:16:06.666Z,10.06
2023-01-01T00:18:33.406Z,9.86
2023-01-01T00:21:03.686Z,9.92
2023-01-01T00:23:30.114Z,9.96
2023-01-01T00:25:56.517Z,9.93
2023-01-01T00:28:23.601Z,9.97
2023-01-01T00:30:50.084Z,10.01
2023-01-01T00:33:16.455Z,10.00
2023-01-01T00:35:42.886Z,9.97
2023-01-01T00:38:09.363Z,9.99
2023-01-01T00:40:35.774Z,10.11
2023-01-01T00:43:02.216Z,10.19
2023-01-01T00:45:29.272Z,10.32
2023-01-01T00:47:55.758Z,10.32
2023-01-01T00:50:23.075Z,10.39
2023-01-01T00:52:49.720Z,10.51
2023-01-01T00:55:16.505Z,10.55
2023-01-01T00:57:42.936Z,10.63
2023-01-01T01:00:11.265Z,10.59
2023-01-01T01:02:38.452Z,10.57
2023-01-01T01:05:06.226Z,10.51
2023-01-01T01:07:35.300Z,10.47
2023-01-01T01:10:01.777Z,10.49
2023-01-01T01:12:28.211Z,10.49
2023-01-01T01:14:54.680Z,10.43
2023-01-01T01:17:21.095Z,10.45
2023-01-01T01:19:48.167Z,10.41
2023-01-01T01:22:14.585Z,10.32
2023-01-01T01:24:41.059Z,10.22
2023-01-01T01:27:07.504Z,10.15
2023-01-01T01:29:33.898Z,10.15
2023-01-01T01:32:00.320Z,10.16
2023-01-01T01:34:28.905Z,10.14
2023-01-01T01:36:56.213Z,10.09
2023-01-01T01:39:22.850Z,10.07
2023-01-01T01:41:49.658Z,10.08
2023-01-01T01:44:49.062Z,10.03
2023-01-01T01:47:20.597Z,9.97
2023-01-01T01:49:48.129Z,9.91
2023-01-01T01:52:15.402Z,9.90
2023-01-01T01:54:42.334Z,9.90
2023-01-01T01:57:12.484Z,9.90
2023-01-01T01:59:47.277Z,9.89
2023-01-01T02:02:22.407Z,9.91
2023-01-01T02:04:49.576Z,9.82
2023-01-01T02:07:17.912Z,9.91
2023-01-01T02:09:44.790Z,9.97
2023-01-01T02:12:11.347Z,10.40
2023-01-01T02:14:37.801Z,10.77
2023-01-01T02:17:09.571Z,11.10
2023-01-01T02:19:47.656Z,11.15
2023-01-01T02:22:17.662Z,11.20
2023-01-01T02:24:57.030Z,11.12
2023-01-01T02:27:31.030Z,11.27
2023-01-01T02:30:01.751Z,11.12
2023-01-01T02:32:33.949Z,11.24
2023-01-01T02:35:24.483Z,11.19
2023-01-01T02:37:55.698Z,11.16
2023-01-01T02:40:23.592Z,11.05
2023-01-01T02:42:52.122Z,11.06
2023-01-01T02:45:19.761Z,11.03
2023-01-01T02:47:46.296Z,11.08
2023-01-01T02:50:16.095Z,11.10
2023-01-01T02:52:55.584Z,11.05
2023-01-01T02:55:32.007Z,11.14
2023-01-01T02:58:21.279Z,11.17
2023-01-01T03:00:50.598Z,11.20
2023-01-01T03:03:25.242Z,11.11
2023-01-01T03:06:18.465Z,11.10
2023-01-01T03:08:51.122Z,10.96
2023-01-01T03:11:21.412Z,11.02
2023-01-01T03:13:54.497Z,11.03
2023-01-01T03:16:27.413Z,11.06
2023-01-01T03:19:10.225Z,10.99
2023-01-01T03:21:40.935Z,10.86
2023-01-01T03:24:11.226Z,11.00
2023-01-01T03:26:40.212Z,11.20
2023-01-01T03:29:11.848Z,11.15
2023-01-01T03:31:42.275Z,11.09
2023-01-01T03:34:14.294Z,11.15
2023-01-01T03:36:44.968Z,10.97
2023-01-01T03:39:17.072Z,10.74
2023-01-01T03:41:48.219Z,10.58
2023-01-01T03:44:21.410Z,10.53
2023-01-01T03:46:49.117Z,10.67
2023-01-01T03:49:16.815Z,10.47
2023-01-01T03:51:59.253Z,10.45
2023-01-01T03:54:36.013Z,10.45
2023-01-01T03:57:09.276Z,10.32
2023-01-01T03:59:43.003Z,10.30
2023-01-01T04:02:14.598Z,10.20
2023-01-01T04:04:41.402Z,10.10
2023-01-01T04:07:15.135Z,10.00
2023-01-01T04:09:47.618Z,10.05
2023-01-01T04:12:16.133Z,9.92
2023-01-01T04:14:43.905Z,9.90
2023-01-01T04:17:12.205Z,9.78
2023-01-01T04:19:38.699Z,9.56
2023-01-01T04:22:05.509Z,9.50
2023-01-01T04:24:32.066Z,9.50
2023-01-01T04:26:58.653Z,9.51
2023-01-01T04:29:25.097Z,9.63
2023-01-01T04:31:51.566Z,9.70
2023-01-01T04:34:18.775Z,9.70
2023-01-01T04:36:45.214Z,9.74
2023-01-01T04:39:11.667Z,9.61
2023-01-01T04:41:38.023Z,9.67
2023-01-01T04:44:04.831Z,9.78
2023-01-01T04:46:31.311Z,9.84
2023-01-01T04:48:57.974Z,9.77
2023-01-01T04:51:25.168Z,9.58
2023-01-01T04:53:51.637Z,9.65
2023-01-01T04:56:19.999Z,9.61
2023-01-01T04:58:47.224Z,9.51
2023-01-01T05:01:19.737Z,9.50
2023-01-01T05:03:46.996Z,9.49
2023-01-01T05:06:14.548Z,9.51
2023-01-01T05:08:43.817Z,9.51
2023-01-01T05:11:12.107Z,9.69
2023-01-01T05:13:41.488Z,9.66
2023-01-01T05:16:10.422Z,9.70
2023-01-01T05:18:37.531Z,9.84
2023-01-01T05:21:07.214Z,9.81
2023-01-01T05:23:34.111Z,9.78
2023-01-01T05:26:09.259Z,9.62
2023-01-01T05:28:35.744Z,9.71
2023-01-01T05:31:05.952Z,9.61
2023-01-01T05:33:32.379Z,9.56
2023-01-01T05:35:58.790Z,9.69
2023-01-01T05:38:25.218Z,9.69
2023-01-01T05:40:51.657Z,9.75
2023-01-01T05:43:18.776Z,9.75
2023-01-01T05:45:45.271Z,9.83
2023-01-01T05:48:11.874Z,9.69
2023-01-01T05:50:38.419Z,9.71
2023-01-01T05:53:04.900Z,9.55
2023-01-01T05:55:31.338Z,9.40
2023-01-01T05:57:57.735Z,9.55
2023-01-01T06:00:24.787Z,9.53
2023-01-01T06:02:51.275Z,9.52
2023-01-01T06:05:17.693Z,9.68
2023-01-01T06:07:48.668Z,9.65
2023-01-01T06:10:15.473Z,9.61
2023-01-01T06:12:41.904Z,9.50
2023-01-01T06:15:08.933Z,9.60
2023-01-01T06:17:36.154Z,9.71
2023-01-01T06:20:02.727Z,9.67
2023-01-01T06:22:29.292Z,9.64
2023-01-01T06:24:55.757Z,9.54
2023-01-01T06:27:22.297Z,9.71
2023-01-01T06:29:48.798Z,9.80
2023-01-01T06:32:15.179Z,9.70
2023-01-01T06:34:42.316Z,9.74
2023-01-01T06:37:08.753Z,9.82
2023-01-01T06:39:35.278Z,9.69
2023-01-01T06:42:01.736Z,9.66
2023-01-01T06:44:28.132Z,9.80
2023-01-01T06:46:54.539Z,9.71
2023-01-01T06:49:23.519Z,9.86
2023-01-01T06:51:50.576Z,9.87
2023-01-01T06:54:16.929Z,10.11
2023-01-01T06:56:43.418Z,9.98
2023-01-01T06:59:09.979Z,10.06
2023-01-01T07:01:39.256Z,10.07
2023-01-01T07:04:10.109Z,10.13
2023-01-01T07:06:37.024Z,9.98
2023-01-01T07:09:04.684Z,9.99
2023-01-01T07:11:31.642Z,10.09
2023-01-01T07:13:58.174Z,9.83
2023-01-01T07:16:25.104Z,9.77
2023-01-01T07:18:51.814Z,9.76
2023-01-01T07:21:29.586Z,9.89
2023-01-01T07:23:57.565Z,9.76
2023-01-01T07:26:25.272Z,9.79
2023-01-01T07:28:53.024Z,9.81
2023-01-01T07:31:19.637Z,9.90
2023-01-01T07:33:46.197Z,10.09
2023-01-01T07:36:12.605Z,10.20
2023-01-01T07:38:39.485Z,10.08
2023-01-01T07:41:06.182Z,10.01
2023-01-01T07:43:33.296Z,9.96
2023-01-01T07:45:59.987Z,10.20
2023-01-01T07:48:27.034Z,10.27
2023-01-01T07:50:53.432Z,10.30
2023-01-01T07:53:19.953Z,10.33
2023-01-01T07:55:46.398Z,10.39
2023-01-01T07:58:13.027Z,10.67
2023-01-01T08:00:40.237Z,10.72
2023-01-01T08:03:07.266Z,11.02
2023-01-01T08:05:35.078Z,11.10
2023-01-01T08:08:01.511Z,11.17
2023-01-01T08:10:28.018Z,11.23
2023-01-01T08:12:59.522Z,11.36
2023-01-01T08:15:25.962Z,11.34
2023-01-01T08:17:56.738Z,11.61
2023-01-01T08:20:23.130Z,11.74
2023-01-01T08:22:49.496Z,11.85
2023-01-01T08:25:16.147Z,11.90
2023-01-01T08:27:42.505Z,12.02
2023-01-01T08:30:11.132Z,12.09
2023-01-01T08:32:37.616Z,12.25
2023-01-01T08:35:05.704Z,12.41
2023-01-01T08:37:32.093Z,12.57
2023-01-01T08:39:58.450Z,12.67
2023-01-01T08:42:25.134Z,12.83
2023-01-01T08:44:51.550Z,12.80
2023-01-01T08:47:19.137Z,12.95
2023-01-01T08:49:45.524Z,13.06
2023-01-01T08:52:12.642Z,13.11
2023-01-01T08:54:39.073Z,13.18
2023-01-01T08:57:05.635Z,13.21
2023-01-01T08:59:32.170Z,13.25
2023-01-01T09:01:59.085Z,13.28
2023-01-01T09:04:25.654Z,13.45
2023-01-01T09:06:53.026Z,13.64
2023-01-01T09:09:20.221Z,13.66
2023-01-01T09:11:53.321Z,13.67
2023-01-01T09:14:20.592Z,13.69
2023-01-01T09:16:47.479Z,13.82
2023-01-01T09:19:13.883Z,13.75
2023-01-01T09:21:40.282Z,13.85
2023-01-01T09:24:09.646Z,13.96
2023-01-01T09:26:36.700Z,13.97
2023-01-01T09:29:03.267Z,14.13
2023-01-01T09:31:29.856Z,14.36
2023-01-01T09:33:56.257Z,14.48
2023-01-01T09:36:30.316Z,14.57
2023-01-01T09:38:58.001Z,14.64
2023-01-01T09:41:41.370Z,14.72
2023-01-01T09:44:21.003Z,14.86
2023-01-01T09:46:48.208Z,14.97
2023-01-01T09:49:18.277Z,15.03
2023-01-01T09:51:57.500Z,15.09
2023-01-01T09:54:28.849Z,15.06
2023-01-01T09:56:58.844Z,15.04
2023-01-01T09:59:25.591Z,15.02
2023-01-01T10:01:59.570Z,15.09
2023-01-01T10:04:40.588Z,15.25
2023-01-01T10:07:14.401Z,15.46
2023-01-01T10:09:48.957Z,15.65
2023-01-01T10:12:24.108Z,15.68
2023-01-01T10:15:00.699Z,15.76
2023-01-01T10:17:34.368Z,15.68
2023-01-01T10:20:03.857Z,15.82
2023-01-01T10:22:34.975Z,15.86
2023-01-01T10:25:07.776Z,15.82
2023-01-01T10:27:39.579Z,15.83
2023-01-01T10:30:14.995Z,15.66
2023-01-01T10:32:43.953Z,15.69
2023-01-01T10:35:14.090Z,15.80
2023-01-01T10:37:42.054Z,15.89
2023-01-01T10:40:15.931Z,15.87
2023-01-01T10:42:46.988Z,15.83
2023-01-01T10:45:15.765Z,15.84
2023-01-01T10:48:09.983Z,16.14
2023-01-01T10:50:42.580Z,16.26
2023-01-01T10:53:22.493Z,16.36
2023-01-01T10:55:50.109Z,16.40
2023-01-01T10:58:27.547Z,16.33
2023-01-01T11:01:02.342Z,16.37
2023-01-01T11:03:29.059Z,16.44
2023-01-01T11:06:14.694Z,16.43
2023-01-01T11:08:47.792Z,16.42
2023-01-01T11:11:20.635Z,16.47
2023-01-01T11:13:49.934Z,16.56
2023-01-01T11:16:16.850Z,16.67
2023-01-01T11:18:43.438Z,16.65
2023-01-01T11:21:10.045Z,16.79
2023-01-01T11:23:38.427Z,16.79
2023-01-01T11:26:18.548Z,16.77
2023-01-01T11:29:01.361Z,16.90
2023-01-01T11:31:30.042Z,16.93
2023-01-01T11:33:56.921Z,17.13
2023-01-01T11:36:25.148Z,17.29
2023-01-01T11:39:06.225Z,17.37
2023-01-01T11:41:41.856Z,17.36
2023-01-01T11:44:13.214Z,17.33
2023-01-01T11:46:40.264Z,17.22
2023-01-01T11:49:14.164Z,17.17
2023-01-01T11:51:40.762Z,17.20
2023-01-01T11:54:21.165Z,17.21
2023-01-01T11:56:52.293Z,17.40
2023-01-01T11:59:23.262Z,17.47
2023-01-01T12:01:54.484Z,17.42
2023-01-01T12:04:26.546Z,17.49
2023-01-01T12:06:59.633Z,17.44
2023-01-01T12:09:33.170Z,17.45
2023-01-01T12:12:05.483Z,17.41
2023-01-01T12:14:39.920Z,17.44
2023-01-01T12:17:14.594Z,17.36
2023-01-01T12:19:47.875Z,17.46
2023-01-01T12:22:16.043Z,17.47
2023-01-01T12:24:43.741Z,17.56
2023-01-01T12:27:17.804Z,17.72
2023-01-01T12:30:03.166Z,17.74
2023-01-01T12:32:55.653Z,17.87
2023-01-01T12:35:36.374Z,17.94
2023-01-01T12:38:17.452Z,17.70
2023-01-01T12:40:51.889Z,17.91
2023-01-01T12:43:23.683Z,17.94
2023-01-01T12:46:20.043Z,17.86
2023-01-01T12:48:59.804Z,17.89
2023-01-01T12:51:35.702Z,17.98
2023-01-01T12:54:23.654Z,18.00
2023-01-01T12:56:56.195Z,18.03
2023-01-01T12:59:26.639Z,18.08
2023-01-01T13:01:57.002Z,18.02
2023-01-01T13:04:26.797Z,18.13
2023-01-01T13:07:02.802Z,18.13
2023-01-01T13:09:33.592Z,18.16
2023-01-01T13:12:04.175Z,18.21
2023-01-01T13:14:30.941Z,18.25
2023-01-01T13:16:58.048Z,18.32
2023-01-01T13:19:30.453Z,18.28
2023-01-01T13:21:56.885Z,18.39
2023-01-01T13:24:24.974Z,18.49
2023-01-01T13:26:51.643Z,18.68
2023-01-01T13:29:34.846Z,18.65
2023-01-01T13:32:09.929Z,18.56
2023-01-01T13:34:58.084Z,18.54
2023-01-01T13:37:29.658Z,18.45
2023-01-01T13:39:58.214Z,18.40
2023-01-01T13:42:43.814Z,18.35
2023-01-01T13:45:36.444Z,18.37
2023-01-01T13:48:24.412Z,18.56
2023-01-01T13:51:00.037Z,18.65
2023-01-01T13:54:04.784Z,18.67
2023-01-01T13:56:37.676Z,18.74
2023-01-01T13:59:37.434Z,18.81
2023-01-01T14:02:17.927Z,18.86
2023-01-01T14:04:49.622Z,18.69
2023-01-01T14:07:53.306Z,18.57
2023-01-01T14:10:23.733Z,18.62
2023-01-01T14:12:51.798Z,18.76
2023-01-01T14:15:24.891Z,18.68
2023-01-01T14:17:52.282Z,18.53
2023-01-01T14:20:22.178Z,18.37
2023-01-01T14:22:50.425Z,18.31
2023-01-01T14:25:24.750Z,18.18
2023-01-01T14:27:52.762Z,18.08
2023-01-01T14:30:19.418Z,18.01
2023-01-01T14:32:45.880Z,17.88
2023-01-01T14:35:15.467Z,17.76
2023-01-01T14:37:42.851Z,17.53
2023-01-01T14:40:17.306Z,17.41
2023-01-01T14:42:47.317Z,17.28
2023-01-01T14:45:15.686Z,17.14
2023-01-01T14:47:48.024Z,16.96
2023-01-01T14:50:21.763Z,16.76
2023-01-01T14:52:55.469Z,16.44
2023-01-01T14:55:22.526Z,16.19
2023-01-01T14:57:55.629Z,16.00
2023-01-01T15:00:24.769Z,15.78
2023-01-01T15:02:51.443Z,15.58
2023-01-01T15:05:34.953Z,15.42
2023-01-01T15:08:05.502Z,15.26
2023-01-01T15:10:34.584Z,15.15
2023-01-01T15:13:04.936Z,14.97
2023-01-01T15:15:42.311Z,14.81
2023-01-01T15:18:39.808Z,14.62
2023-01-01T15:21:12.664Z,14.45
2023-01-01T15:23:48.593Z,14.53
2023-01-01T15:26:26.602Z,14.38
2023-01-01T15:28:53.280Z,14.52
2023-01-01T15:31:19.919Z,14.36
2023-01-01T15:33:47.657Z,14.23
2023-01-01T15:36:16.120Z,14.02
2023-01-01T15:38:47.594Z,13.97
2023-01-01T15:41:24.030Z,13.85
2023-01-01T15:43:50.545Z,13.73
2023-01-01T15:46:20.284Z,13.62
2023-01-01T15:48:48.545Z,13.54
2023-01-01T15:51:17.868Z,13.51
2023-01-01T15:53:52.491Z,13.38
2023-01-01T15:56:23.268Z,13.29
2023-01-01T15:58:54.733Z,13.20
2023-01-01T16:01:24.334Z,13.12
2023-01-01T16:03:55.438Z,13.02
2023-01-01T16:06:22.130Z,12.90
2023-01-01T16:08:50.691Z,12.82
2023-01-01T16:11:17.172Z,12.77
2023-01-01T16:13:46.563Z,12.68
2023-01-01T16:16:26.019Z,12.57
2023-01-01T16:18:53.867Z,12.47
2023-01-01T16:21:21.339Z,12.39
2023-01-01T16:23:47.754Z,12.31
2023-01-01T16:26:15.308Z,12.17
2023-01-01T16:28:41.757Z,12.12
2023-01-01T16:31:14.241Z,12.01
2023-01-01T16:33:41.505Z,11.95
2023-01-01T16:36:11.170Z,11.88
2023-01-01T16:38:37.596Z,11.82
2023-01-01T16:41:04.230Z,11.77
2023-01-01T16:43:31.935Z,11.73
2023-01-01T16:46:01.347Z,11.69
2023-01-01T16:48:30.318Z,11.62
2023-01-01T16:50:57.894Z,11.59
2023-01-01T16:53:24.322Z,11.51
2023-01-01T16:55:51.626Z,11.43
2023-01-01T17:01:06.489Z,11.28
2023-01-01T17:03:34.108Z,11.30
2023-01-01T17:06:03.892Z,11.22
2023-01-01T17:08:31.586Z,11.14
2023-01-01T17:11:07.899Z,11.23
2023-01-01T17:13:39.599Z,11.20
2023-01-01T17:16:08.358Z,11.22
2023-01-01T17:21:22.983Z,11.32
2023-01-01T17:23:50.301Z,11.29
2023-01-01T17:26:21.725Z,11.25
2023-01-01T17:28:53.586Z,11.18
2023-01-01T17:31:25.291Z,11.15
2023-01-01T17:33:51.795Z,11.08
2023-01-01T17:36:18.475Z,11.03
2023-01-01T17:38:44.948Z,11.05
2023-01-01T17:41:13.617Z,11.07
2023-01-01T17:43:41.607Z,11.06
2023-01-01T17:46:12.197Z,11.02
2023-01-01T17:48:40.207Z,10.96
2023-01-01T17:51:07.682Z,10.97
2023-01-01T17:53:34.251Z,10.86
2023-01-01T17:56:01.219Z,10.89
2023-01-01T17:58:33.546Z,10.89
2023-01-01T18:01:19.396Z,10.90
2023-01-01T18:03:47.245Z,10.94
2023-01-01T18:06:13.705Z,10.91
2023-01-01T18:08:40.336Z,10.91
2023-01-01T18:11:06.811Z,10.91
2023-01-01T18:13:36.644Z,10.83
2023-01-01T18:16:04.481Z,10.81
2023-01-01T18:18:31.059Z,10.72
2023-01-01T18:21:02.116Z,10.74
2023-01-01T18:23:31.927Z,10.74
2023-01-01T18:26:02.154Z,10.77
2023-01-01T18:28:28.727Z,10.81
2023-01-01T18:30:55.427Z,10.79
2023-01-01T18:33:22.176Z,10.72
2023-01-01T18:35:48.747Z,10.70
2023-01-01T18:38:17.325Z,10.71
2023-01-01T18:40:52.715Z,10.70
2023-01-01T18:43:23.738Z,10.66
2023-01-01T18:45:51.671Z,10.59
2023-01-01T18:48:21.121Z,10.53
2023-01-01T18:50:47.593Z,10.49
2023-01-01T18:53:20.890Z,10.45
2023-01-01T18:55:50.798Z,10.43
2023-01-01T18:58:20.673Z,10.45
2023-01-01T19:00:48.473Z,10.45
2023-01-01T19:03:18.294Z,10.43
2023-01-01T19:05:46.854Z,10.46
2023-01-01T19:08:16.254Z,10.48
2023-01-01T19:10:46.008Z,10.51
2023-01-01T19:13:32.708Z,10.42
2023-01-01T19:16:02.398Z,10.35
2023-01-01T19:18:31.029Z,10.33
2023-01-01T19:21:00.733Z,10.32
2023-01-01T19:23:27.191Z,10.27
2023-01-01T19:26:02.538Z,10.23
2023-01-01T19:28:35.018Z,10.14
2023-01-01T19:31:03.026Z,10.09
2023-01-01T19:33:30.041Z,10.00
2023-01-01T19:35:57.196Z,9.95
2023-01-01T19:38:23.840Z,9.88
2023-01-01T19:40:50.441Z,9.86
2023-01-01T19:43:16.980Z,9.88
2023-01-01T19:45:44.098Z,9.87
2023-01-01T19:48:10.720Z,9.87
2023-01-01T19:50:37.232Z,9.90
2023-01-01T19:53:03.649Z,9.89
2023-01-01T19:55:30.060Z,9.90
2023-01-01T19:57:56.580Z,9.92
2023-01-01T20:00:26.644Z,9.98
2023-01-01T20:02:54.450Z,10.01
2023-01-01T20:05:21.016Z,10.09
2023-01-01T20:07:47.630Z,10.11
2023-01-01T20:10:14.324Z,10.18
2023-01-01T20:12:40.914Z,10.21
2023-01-01T20:15:08.335Z,10.28
2023-01-01T20:17:35.360Z,10.29
2023-01-01T20:20:05.931Z,10.25
2023-01-01T20:22:32.396Z,10.19
2023-01-01T20:24:58.856Z,10.20
2023-01-01T20:27:26.823Z,10.17
2023-01-01T20:29:53.515Z,10.15
2023-01-01T20:32:20.447Z,10.15
2023-01-01T20:34:47.212Z,10.17
2023-01-01T20:37:32.551Z,10.19
2023-01-01T20:39:58.998Z,10.18
2023-01-01T20:42:27.300Z,10.16
2023-01-01T20:44:53.772Z,10.14
2023-01-01T20:47:20.357Z,10.13
2023-01-01T20:49:46.895Z,10.13
2023-01-01T20:52:14.142Z,10.15
2023-01-01T20:54:40.579Z,10.16
2023-01-01T20:57:07.110Z,10.07
2023-01-01T20:59:36.295Z,10.14
2023-01-01T21:02:05.128Z,10.11
2023-01-01T21:04:31.788Z,10.06
2023-01-01T21:06:58.367Z,10.14
2023-01-01T21:09:25.619Z,10.17
2023-01-01T21:11:52.152Z,10.21
2023-01-01T21:14:20.930Z,10.20
2023-01-01T21:16:47.384Z,10.25
2023-01-01T21:19:13.905Z,10.24
2023-01-01T21:21:44.019Z,10.19
2023-01-01T21:24:20.703Z,10.12
2023-01-01T21:26:48.700Z,10.04
2023-01-01T21:29:17.463Z,9.89
2023-01-01T21:31:47.003Z,9.80
2023-01-01T21:34:28.870Z,9.77
2023-01-01T21:36:59.922Z,9.52
2023-01-01T21:39:29.168Z,9.75
2023-01-01T21:42:01.297Z,9.77
2023-01-01T21:44:28.869Z,9.71
2023-01-01T21:47:01.635Z,9.67
2023-01-01T21:49:38.990Z,9.49
2023-01-01T21:52:15.338Z,9.40
2023-01-01T21:54:42.034Z,9.19
2023-01-01T21:57:16.843Z,9.11
2023-01-01T21:59:45.209Z,9.04
2023-01-01T22:02:39.051Z,8.83
2023-01-01T22:05:29.739Z,8.72
2023-01-01T22:07:58.600Z,8.69
2023-01-01T22:10:32.204Z,8.59
2023-01-01T22:13:00.259Z,8.42
2023-01-01T22:15:37.803Z,8.31
2023-01-01T22:18:18.561Z,8.21
2023-01-01T22:20:45.702Z,8.20
2023-01-01T22:23:37.595Z,8.26
2023-01-01T22:26:11.511Z,8.32
2023-01-01T22:28:43.299Z,8.18
2023-01-01T22:31:16.492Z,8.22
2023-01-01T22:33:45.583Z,8.31
2023-01-01T22:36:16.016Z,8.42
2023-01-01T22:38:42.533Z,8.47
2023-01-01T22:41:09.534Z,8.47
2023-01-01T22:43:41.068Z,8.42
2023-01-01T22:46:15.634Z,8.39
2023-01-01T22:48:42.070Z,8.34
2023-01-01T22:51:16.733Z,8.14
2023-01-01T22:53:43.314Z,8.12
2023-01-01T22:56:11.240Z,7.81
2023-01-01T22:58:37.630Z,7.75
2023-01-01T23:01:05.026Z,7.66
2023-01-01T23:03:31.581Z,7.66
2023-01-01T23:05:58.629Z,7.70
2023-01-01T23:08:25.646Z,7.66
2023-01-01T23:10:52.966Z,7.59
2023-01-01T23:13:37.633Z,7.61
2023-01-01T23:16:04.932Z,7.63
2023-01-01T23:18:33.082Z,7.59
2023-01-01T23:21:00.701Z,7.67
2023-01-01T23:23:28.888Z,7.70
2023-01-01T23:25:57.510Z,7.46
2023-01-01T23:28:24.327Z,7.27
2023-01-01T23:30:50.876Z,7.09
2023-01-01T23:33:18.428Z,6.92
2023-01-01T23:35:46.364Z,7.03
2023-01-01T23:38:12.978Z,7.14
2023-01-01T23:40:41.990Z,7.24
2023-01-01T23:43:08.419Z,7.47
2023-01-01T23:45:35.284Z,7.44
2023-01-01T23:48:02.152Z,7.32
2023-01-01T23:50:31.999Z,7.10
2023-01-01T23:52:58.602Z,7.01
2023-01-01T23:55:25.018Z,6.75
2023-01-01T23:57:51.660Z,6.53
